Date,TemperatureHighF,TemperatureAvgF,TemperatureLowF,DewpointHighF,DewpointAvgF,DewpointLowF,HumidityHigh,HumidityAvg,HumidityLow,PressureMaxIn,PressureMinIn,WindSpeedMaxMPH,WindSpeedAvgMPH,GustSpeedMaxMPH,PrecipitationSumIn
2012-6-22,77,71,62,64,61,58,88,71,59,29.88,29.80,8,2,10,0.09
2012-6-23,81,68,56,64,57,52,92,69,46,30.00,29.87,8,2,10,0.00
2012-6-24,76,68,57,61,57,54,91,69,49,30.00,29.78,7,2,10,0.00
2012-6-25,66,62,56,60,53,46,92,73,53,29.87,29.76,12,5,17,0.00
2012-6-26,72,62,54,54,51,46,89,68,45,29.89,29.79,11,6,24,0.00
2012-7-2,83,78,66,62,58,54,73,51,38,29.96,29.89,10,4,12,0.00
2012-7-3,86,72,60,70,62,56,89,74,42,29.93,29.74,9,2,17,0.10
2012-7-4,89,78,68,75,70,63,88,75,56,29.81,29.69,13,6,17,0.00
2012-7-5,88,78,67,73,67,63,92,72,51,29.86,29.76,3,1,10,0.00
2012-7-6,90,79,65,75,69,62,96,73,43,29.88,29.81,11,3,16,0.00
2012-7-7,84,74,68,75,68,65,97,83,66,29.90,29.79,9,2,14,0.30
2012-7-8,84,74,64,70,63,57,90,72,44,29.91,29.85,6,1,10,0.00
2012-7-9,84,71,59,61,58,52,93,65,37,29.99,29.91,3,1,10,0.00
2012-7-10,82,69,56,66,57,50,96,69,37,30.08,29.96,6,1,10,0.00
2012-7-11,89,70,52,62,53,48,89,59,29,30.15,30.06,4,1,10,0.00
2012-7-12,91,75,57,67,59,51,87,61,37,30.12,30.03,4,0,10,0.00
2012-7-13,91,75,64,69,64,60,90,71,42,30.12,30.04,11,1,22,0.02
2012-7-14,89,77,63,67,64,58,92,65,41,30.12,29.98,6,3,10,0.00
2012-7-15,81,74,69,71,67,61,96,82,55,30.02,29.87,7,2,10,0.17
2012-7-16,88,78,70,70,66,61,94,71,43,29.90,29.78,8,4,12,0.00
2012-7-17,92,83,75,70,65,54,72,54,42,29.80,29.65,18,8,28,0.00
2012-7-18,85,77,65,71,68,60,95,75,50,29.91,29.70,4,1,28,0.00
2012-7-19,79,67,60,67,60,56,95,81,55,29.97,29.89,4,1,28,0.02
2012-7-20,70,63,59,65,60,57,97,89,75,30.04,29.95,2,0,28,0.10
2012-7-21,81,69,57,64,60,56,100,77,48,30.07,29.97,6,2,28,0.01
2012-7-22,85,74,63,69,63,59,90,69,53,30.04,29.96,9,4,28,0.00
2012-7-23,91,81,71,71,67,61,82,62,42,29.97,29.64,14,7,28,0.52
2012-7-24,80,73,63,71,64,54,95,74,48,29.86,29.67,11,4,28,0.00
2012-7-25,88,72,60,64,59,55,93,67,37,29.93,29.68,4,0,28,0.00
2012-7-26,77,72,65,70,67,60,97,85,75,29.71,29.54,10,3,28,0.24
2012-7-27,83,72,65,70,67,62,100,86,59,29.87,29.61,3,0,28,0.14
2012-7-28,80,68,62,70,64,60,98,87,68,29.98,29.86,3,1,7,0.74
2012-7-29,86,71,57,67,60,55,97,71,42,30.02,29.95,3,0,4,0.00
2012-7-30,83,72,58,65,58,53,94,66,40,30.01,29.92,8,2,13,0.00
2012-7-31,86,71,64,71,65,60,98,83,56,29.94,29.73,15,4,15,1.82
2012-8-1,77,69,65,68,65,63,95,88,72,29.82,29.78,7,3,9,0.00
2012-8-2,83,78,72,68,66,62,79,67,56,29.84,29.79,6,3,12,0.00
2012-8-3,92,79,67,74,67,61,93,69,50,29.98,29.84,5,1,12,0.04
2012-8-4,90,79,67,74,70,66,98,76,53,30.02,29.91,11,3,15,0.00
2012-8-5,84,76,69,74,70,65,94,81,70,29.96,29.80,16,6,25,0.24
2012-8-6,76,67,59,65,58,55,90,73,52,30.08,29.96,7,3,12,0.00
2012-8-7,82,69,53,64,56,50,92,68,42,29.99,29.88,6,2,12,0.00
2012-8-8,87,73,60,71,62,56,91,70,45,29.92,29.85,6,2,12,0.00
2012-8-9,80,72,64,68,64,61,95,79,56,29.87,29.74,6,1,12,0.01
2012-8-10,79,69,64,69,65,62,95,86,68,29.76,29.62,7,2,12,0.09
2012-8-11,72,66,62,64,60,58,96,80,63,29.84,29.67,10,5,17,0.00
2012-8-12,73,66,62,65,62,58,95,84,72,29.92,29.82,9,4,13,0.08
2012-8-13,79,71,63,67,62,59,95,76,53,29.98,29.89,6,2,12,0.00
2012-8-14,79,67,63,66,63,59,99,87,60,29.92,29.78,8,1,17,0.20
2012-8-15,81,69,60,67,63,57,100,83,48,29.91,29.83,4,1,7,0.00
2012-8-16,68,64,62,64,61,59,96,92,85,29.93,29.91,5,2,7,0.00
2012-8-17,74,68,62,62,59,54,89,72,57,29.86,29.75,12,5,14,0.28
2012-8-18,71,61,51,54,51,48,93,71,49,29.96,29.86,6,2,12,0.00
2012-8-19,79,62,49,59,51,47,94,70,41,29.97,29.83,5,1,12,0.00
2012-8-20,75,64,54,63,57,52,94,81,60,29.95,29.84,6,1,12,0.02
2012-8-21,78,63,49,56,50,47,94,67,36,30.07,29.95,5,1,12,0.01
2012-8-22,79,66,51,62,55,48,91,70,47,30.12,30.05,6,1,12,0.00
2012-8-23,82,66,52,59,54,48,89,67,40,30.14,30.07,7,1,12,0.00
2012-8-24,89,72,56,66,58,51,88,64,37,30.15,30.07,4,0,12,0.00
2012-8-25,89,74,58,67,60,56,95,66,38,30.18,30.09,6,2,12,0.00
2012-8-26,83,72,58,68,62,56,94,72,52,30.20,30.05,8,2,12,0.00
2012-8-27,80,71,67,68,65,62,96,82,60,30.06,29.85,8,4,14,0.12
2012-8-28,77,68,60,68,62,54,95,80,57,29.98,29.85,9,4,14,0.00
2012-8-29,73,62,53,56,52,48,92,70,44,30.05,29.98,6,1,12,0.00
2012-8-30,81,67,51,62,54,48,90,67,36,30.07,29.96,8,3,12,0.00
2012-8-31,90,76,68,69,59,52,78,56,38,29.98,29.82,16,7,23,0.00
2012-9-1,86,73,61,65,58,54,83,62,38,30.05,29.94,4,1,23,0.00
2012-9-2,87,69,54,60,55,51,91,64,34,30.04,29.96,5,1,23,0.00
2012-9-3,85,71,57,70,64,54,98,80,60,30.01,29.89,7,2,23,0.00
2012-9-4,84,72,66,72,69,64,99,89,67,29.92,29.70,7,2,23,0.67
2012-9-5,83,71,64,68,64,61,99,82,53,29.85,29.78,3,1,9,0.02
2012-9-6,82,72,65,72,66,62,95,81,57,29.85,29.76,8,2,11,0.00
2012-9-7,83,70,60,69,63,58,98,79,44,29.88,29.65,7,2,9,0.23
2012-9-8,73,64,56,67,60,53,96,87,76,29.75,29.39,14,4,17,0.24
2012-9-9,66,58,52,56,52,47,96,79,55,29.98,29.75,8,2,17,0.00
2012-9-10,66,58,49,50,46,41,93,67,42,30.15,29.98,8,2,17,0.00
2012-9-11,74,59,45,57,50,43,96,74,47,30.25,30.15,7,2,17,0.00
2012-9-12,80,64,49,58,52,47,95,68,32,30.28,30.18,7,2,17,0.00
2012-9-13,82,68,53,64,57,50,93,70,46,30.26,30.16,6,2,17,0.00
2012-9-14,81,64,54,65,58,51,95,81,48,30.17,29.99,13,3,18,0.30
2012-9-15,66,57,51,54,51,48,94,81,61,30.22,30.11,8,2,17,0.00
2012-9-16,70,59,46,57,52,45,98,77,54,30.14,30.00,9,3,13,0.00
2012-9-17,73,65,54,55,51,47,86,62,40,30.02,29.81,9,4,13,0.00
2012-9-18,70,61,49,64,58,46,99,89,74,29.81,29.42,14,4,20,0.51
2012-9-19,60,51,43,46,43,38,96,76,45,30.17,29.80,11,3,14,0.01
2012-9-20,70,56,39,51,45,37,95,69,46,30.15,29.91,9,4,15,0.00
2012-9-21,71,62,56,59,55,51,94,77,58,29.92,29.81,9,4,13,0.00
2012-9-22,66,56,47,60,52,43,97,87,75,29.92,29.57,11,4,16,0.28
2012-9-23,56,49,42,46,41,35,97,76,46,30.13,29.92,16,6,22,0.00
2012-9-24,57,49,40,45,41,39,94,75,54,30.15,29.97,10,5,16,0.00
2012-9-25,71,60,51,51,43,39,81,54,36,30.00,29.91,12,6,18,0.00
2012-9-26,66,60,53,62,56,46,96,87,72,30.11,29.89,8,3,15,0.23
2012-9-27,63,53,42,52,46,40,95,78,60,30.23,30.11,3,1,10,0.00
2012-9-28,55,50,42,52,46,40,97,89,75,30.16,30.04,1,0,10,0.05
2012-9-29,64,52,44,52,47,43,97,82,61,30.04,29.93,6,1,10,0.00
2012-9-30,56,50,44,52,47,42,99,89,78,29.93,29.84,6,1,10,0.03
2012-10-1,63,55,49,53,49,46,93,80,64,29.91,29.82,11,5,14,0.00
2012-10-2,50,50,50,48,48,48,92,92,92,29.90,29.90,0,0,10,0.00
2012-10-8,52,46,37,44,40,34,94,77,56,30.23,30.19,8,2,11,0.00
2012-10-9,62,47,35,45,39,33,95,76,47,30.23,29.97,6,2,8,0.00
2012-10-10,56,47,42,46,40,33,93,78,64,30.00,29.75,17,6,22,0.02
2012-10-11,54,46,36,36,34,31,83,63,48,30.18,30.00,16,8,23,0.00
2012-10-12,52,40,28,43,33,24,94,75,49,30.45,30.01,12,4,16,0.15
2012-10-13,52,41,27,43,29,20,88,65,38,30.46,29.96,13,3,17,0.02
2012-10-14,75,65,50,62,56,43,92,74,56,29.97,29.57,15,8,25,0.05
2012-10-15,66,55,44,57,48,38,88,78,67,29.77,29.46,16,10,21,0.01
2012-10-16,50,44,39,40,38,36,91,79,60,29.91,29.77,14,5,16,0.00
2012-10-17,66,51,35,47,41,33,97,71,46,29.92,29.78,5,1,15,0.00
2012-10-18,56,54,52,45,44,41,78,68,57,29.79,29.72,6,2,15,0.00
2012-10-25,80,71,60,60,58,56,91,63,48,30.08,29.95,7,3,15,0.00
2012-10-26,74,60,46,60,54,44,96,80,56,30.14,29.97,10,5,15,0.00
2012-10-27,50,46,42,50,46,42,100,99,95,30.13,29.94,7,2,15,0.24
2012-10-28,42,41,40,42,41,40,100,100,99,30.07,29.89,7,3,15,0.28
2012-10-29,49,43,42,49,43,41,100,100,99,29.89,29.10,17,8,22,1.63
2012-10-30,53,48,40,53,46,38,100,91,78,29.37,29.04,18,7,23,0.24
2012-10-31,43,41,39,42,38,36,97,90,76,29.45,29.36,6,2,15,0.02
2012-11-1,44,42,40,42,40,37,97,92,87,29.62,29.44,14,9,19,0.03
2012-11-2,40,37,34,37,34,32,93,89,86,29.90,29.61,13,8,17,0.07
2012-11-3,38,35,33,34,32,29,96,88,79,30.09,29.89,11,6,17,0.01
2012-11-4,34,32,31,31,28,26,95,85,78,30.13,30.08,9,4,17,0.00
2012-11-5,34,32,31,31,27,22,95,82,68,30.23,30.10,5,2,17,0.01
2012-11-6,41,32,25,27,24,20,90,72,53,30.21,30.08,5,1,17,0.00
2012-11-7,39,30,21,30,25,19,96,82,54,30.13,30.07,6,1,17,0.00
2012-11-8,40,33,27,28,25,22,89,75,55,30.16,30.09,8,2,17,0.00
2012-11-9,46,40,31,40,35,27,91,83,71,30.21,30.11,10,3,17,0.01
2012-11-10,53,46,40,45,42,39,97,88,71,30.28,30.18,6,1,17,0.00
2012-11-11,72,62,52,47,42,37,70,49,29,30.25,30.14,10,4,17,0.03
2012-11-12,68,57,38,52,45,35,92,66,50,30.16,29.86,16,7,23,0.19
2012-11-13,38,35,33,35,28,23,88,75,65,30.55,30.13,11,4,17,0.01
2012-11-14,37,34,28,31,26,23,89,73,65,30.62,30.49,3,0,17,0.00
2012-11-15,48,34,25,33,28,23,96,80,50,30.50,30.33,3,0,17,0.00
2012-11-16,47,34,26,36,30,24,97,85,64,30.53,30.35,3,0,17,0.00
2012-11-17,52,36,26,39,31,25,99,86,58,30.65,30.52,2,0,17,0.00
2012-11-18,50,36,26,38,31,25,99,84,56,30.65,30.51,4,1,17,0.01
2012-11-19,52,38,28,40,32,26,98,82,59,30.50,30.24,3,0,17,0.01
2012-11-20,49,39,33,39,34,31,96,83,62,30.24,30.11,3,0,17,0.00
2012-11-21,58,39,28,40,32,27,99,80,47,30.26,30.17,2,0,17,0.00
2012-11-22,60,46,32,42,34,28,88,65,44,30.21,29.96,8,2,17,0.00
2012-11-23,52,45,33,45,36,28,95,70,53,29.96,29.64,17,8,23,0.00
2012-11-24,34,31,29,28,24,20,83,75,64,29.94,29.72,20,13,27,0.01
2012-11-25,32,30,28,28,24,18,93,80,64,29.94,29.82,13,6,17,0.01
2012-11-26,34,33,31,27,25,21,81,73,64,30.25,29.89,15,6,17,0.00
2012-11-27,35,31,28,26,22,20,78,69,59,30.31,30.24,7,2,17,0.00
2012-11-28,34,32,30,29,24,19,89,72,55,30.27,30.16,14,6,22,0.00
2012-11-29,44,36,30,32,25,20,81,65,48,30.28,30.19,14,5,20,0.00
2012-11-30,36,27,23,31,24,22,96,90,64,30.42,30.28,6,2,17,0.00
2012-12-1,48,36,24,38,31,22,97,83,67,30.39,30.20,8,2,17,0.03
2012-12-2,52,49,44,51,45,37,98,85,73,30.20,29.89,13,7,18,0.11
2012-12-3,58,47,42,53,45,40,99,90,75,30.22,30.07,8,2,17,0.00
2012-12-4,67,58,45,57,52,41,95,82,60,30.07,29.85,14,7,20,0.49
2012-12-5,45,43,39,41,38,35,87,85,82,30.05,29.94,11,8,17,0.00
2012-12-8,49,42,34,47,41,30,100,95,87,30.15,29.75,10,5,12,0.10
2012-12-9,44,34,29,42,31,26,99,90,83,30.28,29.78,11,3,19,0.16
2012-12-10,54,43,33,51,41,32,96,92,88,29.77,29.51,16,7,19,0.23
2012-12-11,33,30,28,32,27,26,94,87,79,30.18,29.72,9,2,10,0.00
2012-12-12,39,34,30,29,27,24,92,75,63,30.43,30.18,12,4,16,0.01
2012-12-13,42,32,25,28,24,22,89,74,50,30.46,30.36,7,1,11,0.00
2012-12-15,39,37,33,34,33,31,94,87,77,30.28,29.98,12,1,12,0.00
2012-12-16,51,45,39,43,38,32,92,79,69,29.97,29.70,12,6,17,0.02
2012-12-17,47,45,43,45,43,42,99,94,90,29.74,29.51,8,2,14,0.14
2012-12-18,44,40,36,43,39,32,99,94,85,29.73,29.46,13,6,16,0.32
2012-12-19,36,34,32,32,30,29,91,86,85,29.83,29.73,11,6,15,0.00